createdAt,value
2022-12-31T00:00:18.958Z,14.40
2022-12-31T00:02:45.895Z,14.50
2022-12-31T00:05:13.635Z,14.50
2022-12-31T00:10:06.898Z,14.60
2022-12-31T00:12:33.681Z,14.70
2022-12-31T00:15:00.524Z,14.70
2022-12-31T00:17:27.366Z,14.80
2022-12-31T00:19:54.196Z,14.80
2022-12-31T00:22:21.070Z,14.80
2022-12-31T00:24:47.875Z,14.90
2022-12-31T00:27:15.042Z,14.90
2022-12-31T00:29:41.884Z,14.90
2022-12-31T00:32:08.707Z,15.00
2022-12-31T00:34:35.567Z,15.10
2022-12-31T00:37:02.410Z,15.10
2022-12-31T00:39:29.326Z,15.10
2022-12-31T00:41:56.840Z,15.10
2022-12-31T00:44:23.713Z,15.20
2022-12-31T00:46:50.633Z,15.20
2022-12-31T00:49:17.589Z,15.20
2022-12-31T00:51:46.557Z,15.20
2022-12-31T00:54:14.443Z,15.20
2022-12-31T00:56:41.412Z,15.20
2022-12-31T00:59:08.323Z,15.30
2022-12-31T01:01:40.085Z,15.30
2022-12-31T01:04:17.897Z,15.40
2022-12-31T01:06:48.055Z,15.40
2022-12-31T01:09:16.925Z,15.40
2022-12-31T01:11:44.287Z,15.50
2022-12-31T01:14:15.899Z,15.60
2022-12-31T01:16:50.088Z,15.60
2022-12-31T01:19:25.642Z,15.60
2022-12-31T01:21:53.824Z,15.70
2022-12-31T01:24:21.490Z,15.70
2022-12-31T01:26:48.371Z,15.70
2022-12-31T01:29:16.954Z,15.70
2022-12-31T01:31:44.107Z,15.80
2022-12-31T01:34:11.276Z,15.80
2022-12-31T01:36:39.025Z,15.80
2022-12-31T01:39:08.013Z,15.90
2022-12-31T01:41:45.981Z,15.90
2022-12-31T01:44:12.789Z,15.90
2022-12-31T01:47:00.811Z,16.00
2022-12-31T01:49:41.179Z,16.00
2022-12-31T01:52:29.967Z,16.00
2022-12-31T01:55:23.079Z,16.10
2022-12-31T01:57:56.014Z,16.10
2022-12-31T02:00:22.882Z,16.10
2022-12-31T02:02:50.669Z,16.20
2022-12-31T02:05:32.369Z,16.20
2022-12-31T02:07:59.614Z,16.20
2022-12-31T02:10:26.456Z,16.20
2022-12-31T02:12:53.544Z,16.30
2022-12-31T02:15:31.917Z,16.30
2022-12-31T02:18:24.255Z,16.30
2022-12-31T02:21:46.960Z,16.30
2022-12-31T02:24:44.589Z,16.30
2022-12-31T02:28:02.600Z,16.30
2022-12-31T02:30:32.962Z,16.30
2022-12-31T02:33:28.642Z,16.30
2022-12-31T02:36:09.507Z,16.30
2022-12-31T02:38:41.759Z,16.30
2022-12-31T02:41:33.452Z,16.40
2022-12-31T02:44:00.290Z,16.30
2022-12-31T02:46:44.750Z,16.40
2022-12-31T02:49:23.558Z,16.40
2022-12-31T02:52:15.928Z,16.40
2022-12-31T02:55:03.211Z,16.40
2022-12-31T02:57:46.805Z,16.50
2022-12-31T03:00:35.601Z,16.50
2022-12-31T03:03:04.224Z,16.50
2022-12-31T03:05:37.647Z,16.50
2022-12-31T03:08:04.822Z,16.60
2022-12-31T03:10:31.769Z,16.60
2022-12-31T03:12:58.667Z,16.60
2022-12-31T03:15:32.735Z,16.60
2022-12-31T03:18:01.232Z,16.70
2022-12-31T03:20:54.444Z,16.70
2022-12-31T03:23:43.767Z,16.70
2022-12-31T03:26:12.562Z,16.70
2022-12-31T03:28:43.089Z,16.70
2022-12-31T03:31:10.183Z,16.70
2022-12-31T03:33:41.392Z,16.80
2022-12-31T03:36:14.776Z,16.90
2022-12-31T03:38:42.311Z,16.80
2022-12-31T03:41:11.160Z,16.80
2022-12-31T03:43:38.266Z,16.90
2022-12-31T03:46:05.368Z,16.90
2022-12-31T03:48:32.336Z,16.90
2022-12-31T03:50:59.297Z,17.00
2022-12-31T03:53:26.220Z,17.00
2022-12-31T03:55:54.187Z,17.00
2022-12-31T03:58:22.388Z,17.10
2022-12-31T04:00:50.213Z,17.10
2022-12-31T04:03:17.267Z,17.10
2022-12-31T04:05:44.165Z,17.20
2022-12-31T04:08:11.139Z,17.20
2022-12-31T04:10:38.077Z,17.20
2022-12-31T04:13:05.053Z,17.20
2022-12-31T04:15:32.069Z,17.30
2022-12-31T04:17:58.999Z,17.30
2022-12-31T04:20:26.018Z,17.40
2022-12-31T04:22:52.924Z,17.40
2022-12-31T04:25:19.755Z,17.40
2022-12-31T04:27:46.646Z,17.50
2022-12-31T04:30:14.164Z,17.50
2022-12-31T04:32:41.711Z,17.60
2022-12-31T04:35:10.771Z,17.60
2022-12-31T04:37:37.692Z,17.60
2022-12-31T04:40:06.856Z,17.60
2022-12-31T04:42:35.855Z,17.60
2022-12-31T04:45:03.379Z,17.70
2022-12-31T04:47:30.541Z,17.70
2022-12-31T04:49:57.351Z,17.70
2022-12-31T04:52:24.165Z,17.70
2022-12-31T04:54:51.060Z,17.70
2022-12-31T04:57:17.887Z,17.70
2022-12-31T04:59:44.686Z,17.80
2022-12-31T05:02:11.812Z,17.70
2022-12-31T05:04:38.709Z,17.70
2022-12-31T05:07:05.552Z,17.80
2022-12-31T05:09:32.314Z,17.80
2022-12-31T05:11:59.141Z,17.80
2022-12-31T05:14:26.622Z,17.80
2022-12-31T05:16:53.723Z,17.80
2022-12-31T05:19:20.722Z,17.80
2022-12-31T05:22:07.604Z,17.90
2022-12-31T05:24:34.524Z,17.90
2022-12-31T05:27:01.893Z,17.90
2022-12-31T05:29:28.716Z,17.90
2022-12-31T05:31:55.495Z,17.90
2022-12-31T05:34:22.288Z,17.90
2022-12-31T05:36:49.126Z,17.90
2022-12-31T05:39:16.131Z,17.90
2022-12-31T05:41:42.927Z,17.90
2022-12-31T05:44:11.024Z,17.90
2022-12-31T05:46:37.832Z,17.90
2022-12-31T05:49:04.975Z,17.90
2022-12-31T05:51:31.779Z,17.90
2022-12-31T05:53:58.678Z,17.90
2022-12-31T05:56:25.501Z,17.80
2022-12-31T05:58:52.306Z,17.80
2022-12-31T06:01:19.168Z,17.80
2022-12-31T06:03:46.609Z,17.80
2022-12-31T06:06:13.892Z,17.70
2022-12-31T06:08:40.777Z,17.70
2022-12-31T06:11:07.758Z,17.60
2022-12-31T06:13:34.551Z,17.60
2022-12-31T06:16:11.219Z,17.50
2022-12-31T06:18:38.064Z,17.40
2022-12-31T06:21:05.544Z,17.40
2022-12-31T06:23:32.428Z,17.30
2022-12-31T06:26:05.051Z,17.30
2022-12-31T06:28:31.866Z,17.20
2022-12-31T06:31:08.517Z,17.20
2022-12-31T06:33:35.620Z,17.20
2022-12-31T06:36:06.680Z,17.20
2022-12-31T06:38:36.989Z,17.10
2022-12-31T06:41:05.532Z,17.10
2022-12-31T06:43:32.359Z,17.10
2022-12-31T06:46:07.441Z,17.00
2022-12-31T06:48:35.135Z,17.00
2022-12-31T06:51:17.346Z,17.00
2022-12-31T06:53:47.144Z,16.90
2022-12-31T06:56:21.261Z,16.90
2022-12-31T06:58:49.636Z,16.90
2022-12-31T07:01:56.963Z,16.80
2022-12-31T07:04:46.105Z,16.80
2022-12-31T07:07:31.614Z,16.70
2022-12-31T07:10:33.121Z,16.60
2022-12-31T07:13:44.797Z,16.60
2022-12-31T07:16:29.666Z,16.50
2022-12-31T07:19:34.137Z,16.50
2022-12-31T07:22:02.626Z,16.50
2022-12-31T07:24:29.904Z,16.50
2022-12-31T07:27:38.424Z,16.50
2022-12-31T07:30:27.650Z,16.40
2022-12-31T07:33:19.006Z,16.50
2022-12-31T07:36:10.671Z,16.50
2022-12-31T07:39:07.919Z,16.50
2022-12-31T07:42:15.431Z,16.50
2022-12-31T07:45:09.964Z,16.40
2022-12-31T07:47:37.329Z,16.40
2022-12-31T07:50:05.049Z,16.40
2022-12-31T07:52:32.252Z,16.40
2022-12-31T07:54:59.068Z,16.40
2022-12-31T07:57:34.418Z,16.30
2022-12-31T08:00:14.796Z,16.40
2022-12-31T08:02:56.251Z,16.30
2022-12-31T08:05:50.080Z,16.30
2022-12-31T08:08:53.575Z,16.30
2022-12-31T08:11:57.447Z,16.30
2022-12-31T08:14:25.227Z,16.30
2022-12-31T08:16:53.191Z,16.30
2022-12-31T08:19:27.562Z,16.30
2022-12-31T08:22:51.227Z,16.30
2022-12-31T08:25:53.432Z,16.30
2022-12-31T08:28:46.193Z,16.20
2022-12-31T08:32:08.829Z,16.20
2022-12-31T08:34:46.704Z,16.20
2022-12-31T08:37:53.916Z,16.20
2022-12-31T08:41:04.159Z,16.20
2022-12-31T08:44:09.319Z,16.30
2022-12-31T08:46:54.461Z,16.30
2022-12-31T08:49:21.557Z,16.40
2022-12-31T08:51:48.841Z,16.40
2022-12-31T08:54:16.112Z,16.40
2022-12-31T08:57:15.998Z,16.40
2022-12-31T09:00:22.081Z,16.50
2022-12-31T09:03:00.686Z,16.70
2022-12-31T09:05:58.732Z,17.10
2022-12-31T09:08:47.393Z,17.50
2022-12-31T09:11:31.065Z,18.00
2022-12-31T09:14:29.642Z,18.50
2022-12-31T09:17:33.847Z,19.00
2022-12-31T09:20:01.198Z,19.40
2022-12-31T09:22:28.629Z,19.70
2022-12-31T09:24:55.771Z,19.90
2022-12-31T09:27:35.155Z,19.90
2022-12-31T09:30:12.910Z,19.90
2022-12-31T09:32:51.916Z,19.90
2022-12-31T09:35:55.045Z,19.90
2022-12-31T09:38:45.716Z,19.80
2022-12-31T09:42:05.886Z,19.70
2022-12-31T09:45:21.470Z,19.60
2022-12-31T09:48:25.154Z,19.50
2022-12-31T09:51:36.638Z,19.50
2022-12-31T09:54:22.320Z,19.40
2022-12-31T09:57:26.707Z,19.40
2022-12-31T10:00:01.752Z,19.40
2022-12-31T10:03:06.047Z,19.50
2022-12-31T10:06:18.591Z,19.70
2022-12-31T10:09:08.314Z,20.00
2022-12-31T10:12:27.152Z,20.30
2022-12-31T10:15:16.987Z,20.80
2022-12-31T10:18:14.650Z,21.30
2022-12-31T10:21:09.546Z,21.90
2022-12-31T10:24:04.068Z,22.30
2022-12-31T10:26:39.818Z,22.60
2022-12-31T10:29:25.226Z,22.80
2022-12-31T10:32:38.251Z,23.10
2022-12-31T10:35:49.929Z,23.20
2022-12-31T10:38:56.313Z,23.40
2022-12-31T10:41:55.850Z,23.30
2022-12-31T10:45:16.994Z,23.20
2022-12-31T10:48:09.268Z,23.10
2022-12-31T10:50:54.036Z,22.90
2022-12-31T10:53:58.186Z,22.70
2022-12-31T10:56:49.228Z,22.50
2022-12-31T10:59:42.566Z,22.40
2022-12-31T11:02:47.547Z,22.20
2022-12-31T11:06:14.227Z,22.10
2022-12-31T11:09:06.946Z,22.00
2022-12-31T11:12:46.358Z,21.80
2022-12-31T11:15:21.314Z,21.70
2022-12-31T11:18:15.550Z,21.60
2022-12-31T11:20:56.838Z,21.60
2022-12-31T11:24:12.292Z,21.60
2022-12-31T11:26:56.470Z,21.60
2022-12-31T11:30:03.970Z,21.50
2022-12-31T11:32:48.388Z,21.50
2022-12-31T11:35:37.021Z,21.50
2022-12-31T11:38:29.959Z,21.50
2022-12-31T11:41:11.209Z,21.50
2022-12-31T11:43:55.627Z,21.50
2022-12-31T11:46:58.313Z,21.50
2022-12-31T11:49:44.936Z,21.60
2022-12-31T11:52:36.188Z,21.70
2022-12-31T11:55:30.087Z,21.80
2022-12-31T11:58:02.552Z,21.80
2022-12-31T12:00:32.887Z,21.90
2022-12-31T12:03:04.682Z,22.00
2022-12-31T12:05:33.919Z,22.00
2022-12-31T12:08:03.457Z,22.10
2022-12-31T12:11:05.176Z,22.20
2022-12-31T12:13:32.150Z,22.30
2022-12-31T12:16:03.085Z,22.40
2022-12-31T12:18:46.901Z,22.50
2022-12-31T12:21:22.918Z,22.50
2022-12-31T12:24:06.323Z,22.60
2022-12-31T12:26:41.572Z,22.60
2022-12-31T12:29:22.044Z,22.70
2022-12-31T12:32:19.281Z,22.70
2022-12-31T12:34:49.957Z,22.80
2022-12-31T12:37:34.520Z,22.80
2022-12-31T12:40:03.175Z,22.80
2022-12-31T12:42:30.543Z,22.90
2022-12-31T12:45:23.211Z,22.90
2022-12-31T12:48:01.264Z,23.00
2022-12-31T12:50:44.947Z,23.00
2022-12-31T12:53:39.062Z,23.00
2022-12-31T12:56:19.253Z,23.00
2022-12-31T12:58:56.184Z,23.00
2022-12-31T13:01:34.984Z,23.00
2022-12-31T13:04:50.484Z,23.00
2022-12-31T13:07:43.831Z,23.00
2022-12-31T13:10:47.136Z,23.00
2022-12-31T13:13:24.366Z,23.00
2022-12-31T13:15:54.865Z,23.10
2022-12-31T13:18:33.285Z,23.00
2022-12-31T13:21:35.190Z,23.10
2022-12-31T13:24:42.826Z,23.00
2022-12-31T13:27:23.946Z,23.00
2022-12-31T13:29:53.450Z,23.00
2022-12-31T13:32:36.674Z,23.10
2022-12-31T13:35:25.163Z,23.10
2022-12-31T13:38:05.328Z,23.10
2022-12-31T13:40:56.907Z,23.10
2022-12-31T13:43:58.660Z,23.20
2022-12-31T13:46:53.841Z,23.10
2022-12-31T13:50:14.273Z,23.00
2022-12-31T13:52:44.246Z,22.90
2022-12-31T13:55:26.468Z,22.90
2022-12-31T13:58:09.618Z,22.70
2022-12-31T14:00:58.469Z,22.60
2022-12-31T14:04:13.964Z,22.40
2022-12-31T14:07:06.506Z,22.30
2022-12-31T14:09:35.188Z,22.10
2022-12-31T14:12:27.094Z,22.00
2022-12-31T14:15:07.521Z,21.80
2022-12-31T14:18:10.906Z,21.70
2022-12-31T14:21:16.513Z,21.60
2022-12-31T14:24:38.183Z,21.50
2022-12-31T14:27:14.764Z,21.30
2022-12-31T14:29:46.933Z,21.10
2022-12-31T14:32:43.020Z,21.10
2022-12-31T14:36:08.258Z,20.90
2022-12-31T14:39:05.749Z,20.80
2022-12-31T14:42:16.416Z,20.60
2022-12-31T14:45:14.394Z,20.50
2022-12-31T14:48:04.857Z,20.40
2022-12-31T14:50:34.644Z,20.20
2022-12-31T14:53:04.339Z,20.10
2022-12-31T14:55:34.648Z,20.00
2022-12-31T14:58:28.673Z,19.80
2022-12-31T15:01:06.442Z,19.70
2022-12-31T15:03:45.358Z,19.60
2022-12-31T15:06:45.886Z,19.50
2022-12-31T15:09:55.255Z,19.40
2022-12-31T15:13:05.270Z,19.20
2022-12-31T15:15:38.278Z,19.10
2022-12-31T15:18:23.686Z,19.00
2022-12-31T15:21:46.892Z,18.90
2022-12-31T15:24:30.651Z,18.70
2022-12-31T15:27:07.016Z,18.60
2022-12-31T15:29:44.354Z,18.40
2022-12-31T15:32:25.052Z,18.40
2022-12-31T15:35:22.579Z,18.30
2022-12-31T15:38:02.300Z,18.20
2022-12-31T15:40:30.729Z,18.10
2022-12-31T15:43:26.305Z,18.00
2022-12-31T15:45:56.736Z,17.80
2022-12-31T15:49:03.670Z,17.70
2022-12-31T15:52:01.637Z,17.60
2022-12-31T15:54:44.340Z,17.50
2022-12-31T15:57:41.427Z,17.40
2022-12-31T16:00:18.769Z,17.30
2022-12-31T16:02:48.250Z,17.20
2022-12-31T16:05:25.397Z,17.10
2022-12-31T16:07:58.374Z,17.00
2022-12-31T16:10:31.844Z,16.90
2022-12-31T16:13:00.356Z,16.80
2022-12-31T16:15:31.797Z,16.70
2022-12-31T16:18:10.017Z,16.60
2022-12-31T16:20:44.015Z,16.50
2022-12-31T16:23:42.256Z,16.40
2022-12-31T16:26:11.202Z,16.30
2022-12-31T16:28:38.158Z,16.20
2022-12-31T16:31:17.302Z,16.10
2022-12-31T16:33:45.746Z,16.10
2022-12-31T16:36:23.921Z,16.00
2022-12-31T16:38:51.424Z,16.00
2022-12-31T16:41:24.239Z,15.90
2022-12-31T16:43:51.354Z,15.80
2022-12-31T16:46:27.020Z,15.80
2022-12-31T16:49:21.615Z,15.80
2022-12-31T16:51:52.850Z,15.70
2022-12-31T16:54:36.009Z,15.70
2022-12-31T16:57:04.721Z,15.60
2022-12-31T16:59:40.288Z,15.60
2022-12-31T17:02:21.293Z,15.50
2022-12-31T17:04:56.248Z,15.50
2022-12-31T17:07:32.496Z,15.50
2022-12-31T17:10:08.450Z,15.40
2022-12-31T17:13:17.510Z,15.40
2022-12-31T17:15:41.463Z,15.40
2022-12-31T17:18:23.916Z,15.30
2022-12-31T17:20:53.265Z,15.30
2022-12-31T17:23:25.039Z,15.30
2022-12-31T17:26:08.210Z,15.20
2022-12-31T17:28:50.070Z,15.20
2022-12-31T17:31:32.002Z,15.20
2022-12-31T17:34:21.726Z,15.20
2022-12-31T17:37:17.661Z,15.10
2022-12-31T17:39:48.194Z,15.10
2022-12-31T17:42:38.219Z,15.10
2022-12-31T17:45:22.584Z,15.00
2022-12-31T17:47:53.698Z,15.00
2022-12-31T17:50:26.869Z,15.00
2022-12-31T17:53:00.643Z,14.90
2022-12-31T17:55:29.448Z,15.00
2022-12-31T17:57:58.117Z,14.90
2022-12-31T18:00:27.655Z,14.90
2022-12-31T18:02:54.887Z,14.80
2022-12-31T18:05:23.978Z,14.80
2022-12-31T18:07:51.931Z,14.80
2022-12-31T18:10:22.620Z,14.80
2022-12-31T18:12:50.668Z,14.70
2022-12-31T18:15:21.713Z,14.70
2022-12-31T18:17:49.526Z,14.70
2022-12-31T18:20:17.706Z,14.60
2022-12-31T18:22:45.779Z,14.60
2022-12-31T18:25:22.843Z,14.50
2022-12-31T18:27:51.911Z,14.50
2022-12-31T18:30:20.450Z,14.50
2022-12-31T18:32:47.580Z,14.50
2022-12-31T18:35:57.673Z,14.50
2022-12-31T18:38:14.134Z,14.40
2022-12-31T18:40:46.450Z,14.40
2022-12-31T18:43:18.964Z,14.30
2022-12-31T18:45:47.967Z,14.30
2022-12-31T18:48:15.510Z,14.30
2022-12-31T18:50:43.016Z,14.30
2022-12-31T18:53:27.744Z,14.30
2022-12-31T18:55:57.072Z,14.30
2022-12-31T18:58:24.803Z,14.30
2022-12-31T19:00:52.738Z,14.30
2022-12-31T19:03:27.150Z,14.30
2022-12-31T19:05:54.643Z,14.20
2022-12-31T19:08:23.531Z,14.20
2022-12-31T19:10:52.222Z,14.20
2022-12-31T19:13:20.694Z,14.20
2022-12-31T19:15:53.088Z,14.20
2022-12-31T19:18:20.030Z,14.20
2022-12-31T19:20:47.285Z,14.20
2022-12-31T19:23:20.716Z,14.10
2022-12-31T19:25:49.689Z,14.10
2022-12-31T19:28:25.951Z,14.10
2022-12-31T19:30:53.823Z,14.10
2022-12-31T19:33:20.963Z,14.00
2022-12-31T19:35:48.453Z,14.00
2022-12-31T19:38:25.693Z,14.00
2022-12-31T19:40:54.215Z,14.00
2022-12-31T19:43:23.522Z,14.00
2022-12-31T19:45:52.406Z,13.90
2022-12-31T19:48:32.098Z,13.90
2022-12-31T19:51:00.328Z,13.90
2022-12-31T19:53:35.961Z,13.90
2022-12-31T19:56:15.070Z,14.00
2022-12-31T19:58:42.519Z,14.00
2022-12-31T20:01:26.626Z,14.00
2022-12-31T20:03:57.416Z,14.10
2022-12-31T20:06:24.345Z,14.10
2022-12-31T20:08:51.323Z,14.20
2022-12-31T20:11:22.579Z,14.20
2022-12-31T20:13:52.747Z,14.10
2022-12-31T20:16:37.504Z,14.20
2022-12-31T20:19:12.138Z,14.20
2022-12-31T20:21:39.172Z,14.20
2022-12-31T20:24:06.472Z,14.20
2022-12-31T20:26:33.536Z,14.10
2022-12-31T20:29:00.457Z,14.20
2022-12-31T20:31:28.450Z,14.20
2022-12-31T20:33:56.118Z,14.10
2022-12-31T20:36:23.710Z,14.20
2022-12-31T20:38:50.907Z,14.20
2022-12-31T20:41:22.197Z,14.20
2022-12-31T20:43:50.043Z,14.20
2022-12-31T20:46:24.852Z,14.20
2022-12-31T20:48:59.140Z,14.10
2022-12-31T20:51:29.420Z,14.20
2022-12-31T20:54:00.702Z,14.20
2022-12-31T20:56:30.757Z,14.10
2022-12-31T20:58:57.909Z,14.10
2022-12-31T21:01:25.641Z,14.10
2022-12-31T21:04:10.677Z,14.00
2022-12-31T21:06:43.022Z,14.00
2022-12-31T21:09:10.172Z,14.00
2022-12-31T21:11:55.655Z,14.00
2022-12-31T21:14:22.463Z,14.00
2022-12-31T21:16:50.487Z,13.90
2022-12-31T21:19:17.396Z,13.90
2022-12-31T21:21:44.230Z,13.90
2022-12-31T21:24:11.501Z,13.90
2022-12-31T21:26:38.378Z,13.80
2022-12-31T21:29:05.206Z,13.80
2022-12-31T21:31:32.209Z,13.80
2022-12-31T21:33:59.082Z,13.70
2022-12-31T21:36:26.113Z,13.70
2022-12-31T21:38:52.912Z,13.70
2022-12-31T21:41:38.413Z,13.70
2022-12-31T21:44:05.376Z,13.70
2022-12-31T21:46:32.450Z,13.60
2022-12-31T21:49:01.002Z,13.60
2022-12-31T21:52:04.459Z,13.60
2022-12-31T21:54:50.053Z,13.60
2022-12-31T21:57:16.878Z,13.60
2022-12-31T22:00:39.572Z,13.60
2022-12-31T22:03:07.728Z,13.50
2022-12-31T22:05:34.897Z,13.60
2022-12-31T22:08:01.866Z,13.60
2022-12-31T22:10:28.898Z,13.60
2022-12-31T22:12:55.727Z,13.60
2022-12-31T22:15:22.558Z,13.60
2022-12-31T22:17:49.450Z,13.60
2022-12-31T22:20:27.067Z,13.60
2022-12-31T22:22:55.659Z,13.70
2022-12-31T22:25:23.767Z,13.70
2022-12-31T22:28:27.607Z,13.70
2022-12-31T22:30:37.480Z,13.70
2022-12-31T22:33:04.474Z,13.70
2022-12-31T22:35:31.327Z,13.80
2022-12-31T22:38:03.370Z,13.70
2022-12-31T22:40:32.162Z,13.80
2022-12-31T22:42:59.179Z,13.80
2022-12-31T22:45:26.030Z,13.80
2022-12-31T22:47:52.905Z,13.80
2022-12-31T22:50:19.717Z,13.80
2022-12-31T22:52:46.526Z,13.80
2022-12-31T22:55:13.424Z,13.70
2022-12-31T22:57:40.210Z,13.80
2022-12-31T23:00:13.272Z,13.80
2022-12-31T23:02:42.207Z,13.80
2022-12-31T23:05:21.180Z,13.80
2022-12-31T23:07:48.040Z,13.80
2022-12-31T23:10:34.871Z,13.80
2022-12-31T23:13:21.657Z,13.90
2022-12-31T23:16:12.144Z,13.90
2022-12-31T23:19:05.742Z,13.90
2022-12-31T23:21:51.243Z,14.00
2022-12-31T23:24:22.715Z,13.90
2022-12-31T23:26:51.423Z,13.90
2022-12-31T23:29:18.262Z,13.90
2022-12-31T23:31:48.099Z,13.90
2022-12-31T23:34:15.952Z,13.90
2022-12-31T23:36:42.813Z,13.90
2022-12-31T23:39:09.872Z,13.90
2022-12-31T23:41:36.915Z,13.90
2022-12-31T23:44:03.988Z,13.90
2022-12-31T23:46:30.863Z,13.80
2022-12-31T23:48:57.788Z,13.80
2022-12-31T23:51:24.678Z,13.70
2022-12-31T23:53:51.699Z,13.70
2022-12-31T23:56:23.548Z,13.60
2022-12-31T23:58:55.422Z,13.50
